createdAt,value
2023-05-04T00:00:51.048Z,5.50
2023-05-04T00:03:37.508Z,4.43
2023-05-04T00:06:05.208Z,5.28
2023-05-04T00:08:32.598Z,5.40
2023-05-04T00:11:18.792Z,3.97
2023-05-04T00:13:45.884Z,4.22
2023-05-04T00:16:31.636Z,5.10
2023-05-04T00:19:36.230Z,4.30
2023-05-04T00:22:03.549Z,5.45
2023-05-04T00:24:30.799Z,6.18
2023-05-04T00:27:16.567Z,4.47
2023-05-04T00:29:43.799Z,3.92
2023-05-04T00:32:11.056Z,3.47
2023-05-04T00:34:38.325Z,3.95
2023-05-04T00:37:06.470Z,7.10
2023-05-04T00:39:35.336Z,3.92
2023-05-04T00:42:03.456Z,5.72
2023-05-04T00:44:30.637Z,6.38
2023-05-04T00:46:58.282Z,4.85
2023-05-04T00:49:26.667Z,5.03
2023-05-04T00:52:14.741Z,6.38
2023-05-04T00:54:43.430Z,4.35
2023-05-04T00:57:10.701Z,5.60
2023-05-04T00:59:38.030Z,4.30
2023-05-04T01:02:05.516Z,4.22
2023-05-04T01:04:32.589Z,3.22
2023-05-04T01:07:05.899Z,3.50
2023-05-04T01:09:50.966Z,5.13
2023-05-04T01:12:30.719Z,3.95
2023-05-04T01:14:59.090Z,8.50
2023-05-04T01:17:26.650Z,4.57
2023-05-04T01:19:54.318Z,6.28
2023-05-04T01:22:22.242Z,5.20
2023-05-04T01:24:51.114Z,4.28
2023-05-04T01:27:37.884Z,5.50
2023-05-04T01:30:33.450Z,5.18
2023-05-04T01:33:02.280Z,2.72
2023-05-04T01:35:30.131Z,7.60
2023-05-04T01:37:58.995Z,3.90
2023-05-04T01:40:26.124Z,5.68
2023-05-04T01:42:53.335Z,4.57
2023-05-04T01:45:20.568Z,4.32
2023-05-04T01:47:49.201Z,4.22
2023-05-04T01:50:16.299Z,2.85
2023-05-04T01:52:43.431Z,4.03
2023-05-04T01:55:10.727Z,2.75
2023-05-04T01:57:37.847Z,3.28
2023-05-04T02:00:05.805Z,4.18
2023-05-04T02:02:33.871Z,4.00
2023-05-04T02:05:01.020Z,3.30
2023-05-04T02:07:28.217Z,4.18
2023-05-04T02:09:55.275Z,3.22
2023-05-04T02:12:22.451Z,4.80
2023-05-04T02:14:49.581Z,5.20
2023-05-04T02:17:16.670Z,3.15
2023-05-04T02:19:43.743Z,4.57
2023-05-04T02:22:10.934Z,4.38
2023-05-04T02:24:40.456Z,4.05
2023-05-04T02:27:07.628Z,3.58
2023-05-04T02:29:34.922Z,5.75
2023-05-04T02:32:02.555Z,6.78
2023-05-04T02:34:30.160Z,6.75
2023-05-04T02:36:57.245Z,5.78
2023-05-04T02:39:24.319Z,4.53
2023-05-04T02:41:51.509Z,4.90
2023-05-04T02:44:18.600Z,4.60
2023-05-04T02:46:45.772Z,3.83
2023-05-04T02:49:12.895Z,5.05
2023-05-04T02:51:41.618Z,4.90
2023-05-04T02:54:08.921Z,6.72
2023-05-04T02:56:38.508Z,7.30
2023-05-04T02:59:05.540Z,6.75
2023-05-04T03:01:34.740Z,4.68
2023-05-04T03:04:02.234Z,6.22
2023-05-04T03:06:29.349Z,6.80
2023-05-04T03:08:56.699Z,7.50
2023-05-04T03:11:24.033Z,4.22
2023-05-04T03:13:51.499Z,5.32
2023-05-04T03:16:19.196Z,8.63
2023-05-04T03:18:46.556Z,4.10
2023-05-04T03:21:13.760Z,4.88
2023-05-04T03:23:41.186Z,4.68
2023-05-04T03:26:08.543Z,6.50
2023-05-04T03:28:35.741Z,5.20
2023-05-04T03:31:03.323Z,6.18
2023-05-04T03:33:30.442Z,6.45
2023-05-04T03:35:57.496Z,5.20
2023-05-04T03:38:24.729Z,6.50
2023-05-04T03:40:52.261Z,5.93
2023-05-04T03:43:19.336Z,6.40
2023-05-04T03:45:46.758Z,4.47
2023-05-04T03:48:14.344Z,3.55
2023-05-04T03:50:41.467Z,6.15
2023-05-04T03:53:08.706Z,5.15
2023-05-04T03:55:36.150Z,4.88
2023-05-04T03:58:03.729Z,5.15
2023-05-04T04:00:30.818Z,7.85
2023-05-04T04:02:58.061Z,3.78
2023-05-04T04:05:25.448Z,5.60
2023-05-04T04:07:52.631Z,6.60
2023-05-04T04:10:19.924Z,6.00
2023-05-04T04:12:48.115Z,5.13
2023-05-04T04:15:15.228Z,5.80
2023-05-04T04:17:42.344Z,10.23
2023-05-04T04:20:10.115Z,7.00
2023-05-04T04:22:37.363Z,7.40
2023-05-04T04:25:05.103Z,10.98
2023-05-04T04:27:32.721Z,5.10
2023-05-04T04:30:00.020Z,5.45
2023-05-04T04:32:27.284Z,11.45
2023-05-04T04:34:54.493Z,7.40
2023-05-04T04:37:21.862Z,6.00
2023-05-04T04:39:49.068Z,5.88
2023-05-04T04:42:16.463Z,6.85
2023-05-04T04:44:45.735Z,8.77
2023-05-04T04:47:13.254Z,11.43
2023-05-04T04:49:40.421Z,6.72
2023-05-04T04:52:07.529Z,3.88
2023-05-04T04:54:34.595Z,8.02
2023-05-04T04:57:02.517Z,3.10
2023-05-04T04:59:30.180Z,7.28
2023-05-04T05:01:57.915Z,6.20
2023-05-04T05:04:25.368Z,7.00
2023-05-04T05:06:54.265Z,5.15
2023-05-04T05:09:21.655Z,6.70
2023-05-04T05:11:48.868Z,6.47
2023-05-04T05:14:16.075Z,7.85
2023-05-04T05:16:43.141Z,4.13
2023-05-04T05:19:10.234Z,5.32
2023-05-04T05:21:57.173Z,5.32
2023-05-04T05:24:24.384Z,3.83
2023-05-04T05:26:53.057Z,6.80
2023-05-04T05:29:20.181Z,9.15
2023-05-04T05:31:47.428Z,5.55
2023-05-04T05:34:14.601Z,8.50
2023-05-04T05:36:41.762Z,5.20
2023-05-04T05:39:08.886Z,2.45
2023-05-04T05:41:36.378Z,3.88
2023-05-04T05:44:03.573Z,2.58
2023-05-04T05:46:30.864Z,2.60
2023-05-04T05:48:57.918Z,4.65
2023-05-04T05:51:25.036Z,2.88
2023-05-04T05:53:52.421Z,2.65
2023-05-04T05:56:19.554Z,6.10
2023-05-04T05:58:46.826Z,7.72
2023-05-04T06:01:14.767Z,5.63
2023-05-04T06:03:42.161Z,3.92
2023-05-04T06:06:09.668Z,3.05
2023-05-04T06:08:36.820Z,6.63
2023-05-04T06:11:03.973Z,3.80
2023-05-04T06:13:49.859Z,2.40
2023-05-04T06:16:17.086Z,3.00
2023-05-04T06:18:44.235Z,2.63
2023-05-04T06:21:11.515Z,3.47
2023-05-04T06:23:38.639Z,2.40
2023-05-04T06:26:06.206Z,2.40
2023-05-04T06:28:33.681Z,1.70
2023-05-04T06:31:01.633Z,2.80
2023-05-04T06:33:29.161Z,5.53
2023-05-04T06:35:56.407Z,2.78
2023-05-04T06:38:23.687Z,2.63
2023-05-04T06:40:50.934Z,3.83
2023-05-04T06:43:18.173Z,2.47
2023-05-04T06:45:45.446Z,4.80
2023-05-04T06:48:12.611Z,4.45
2023-05-04T06:50:40.088Z,2.78
2023-05-04T06:53:09.629Z,4.43
2023-05-04T06:55:37.338Z,2.60
2023-05-04T06:58:04.732Z,2.15
2023-05-04T07:00:32.236Z,2.28
2023-05-04T07:02:59.517Z,2.40
2023-05-04T07:05:26.893Z,4.10
2023-05-04T07:07:54.077Z,3.33
2023-05-04T07:10:21.248Z,3.95
2023-05-04T07:12:48.996Z,1.63
2023-05-04T07:15:16.102Z,3.60
2023-05-04T07:17:43.375Z,2.40
2023-05-04T07:20:11.372Z,2.75
2023-05-04T07:22:38.576Z,3.15
2023-05-04T07:25:06.341Z,2.95
2023-05-04T07:27:35.180Z,4.18
2023-05-04T07:30:03.684Z,3.30
2023-05-04T07:32:33.405Z,2.17
2023-05-04T07:35:00.526Z,1.83
2023-05-04T07:37:27.718Z,2.85
2023-05-04T07:39:54.939Z,4.57
2023-05-04T07:42:23.698Z,3.53
2023-05-04T07:44:52.284Z,3.35
2023-05-04T07:47:19.899Z,3.35
2023-05-04T07:49:47.104Z,4.25
2023-05-04T07:52:14.302Z,3.05
2023-05-04T07:54:41.529Z,2.88
2023-05-04T07:57:08.708Z,1.38
2023-05-04T07:59:35.855Z,1.73
2023-05-04T08:02:03.242Z,1.52
2023-05-04T08:04:30.501Z,12.82
2023-05-04T08:06:57.652Z,3.67
2023-05-04T08:09:24.744Z,2.95
2023-05-04T08:11:52.731Z,2.63
2023-05-04T08:14:20.136Z,5.05
2023-05-04T08:16:47.871Z,4.80
2023-05-04T08:19:15.346Z,3.33
2023-05-04T08:21:42.498Z,5.88
2023-05-04T08:24:09.821Z,2.08
2023-05-04T08:26:39.924Z,3.83
2023-05-04T08:29:10.500Z,9.95
2023-05-04T08:31:38.270Z,5.68
2023-05-04T08:34:05.804Z,3.05
2023-05-04T08:36:32.924Z,3.50
2023-05-04T08:39:00.260Z,2.50
2023-05-04T08:41:27.378Z,2.88
2023-05-04T08:43:54.886Z,4.35
2023-05-04T08:46:23.124Z,4.78
2023-05-04T08:48:50.669Z,4.88
2023-05-04T08:51:19.425Z,3.55
2023-05-04T08:53:48.613Z,2.35
2023-05-04T08:56:16.927Z,2.42
2023-05-04T08:58:51.844Z,5.35
2023-05-04T09:01:20.344Z,3.20
2023-05-04T09:03:49.261Z,3.60
2023-05-04T09:06:16.867Z,4.57
2023-05-04T09:08:44.087Z,4.30
2023-05-04T09:11:11.274Z,3.95
2023-05-04T09:13:38.925Z,1.88
2023-05-04T09:16:07.790Z,5.38
2023-05-04T09:18:39.274Z,4.90
2023-05-04T09:21:07.243Z,3.30
2023-05-04T09:23:45.478Z,3.63
2023-05-04T09:26:12.912Z,2.20
2023-05-04T09:28:40.146Z,2.85
2023-05-04T09:31:08.161Z,1.85
2023-05-04T09:33:35.693Z,2.97
2023-05-04T09:36:17.706Z,2.22
2023-05-04T09:38:45.335Z,2.13
2023-05-04T09:41:12.772Z,4.05
2023-05-04T09:43:40.558Z,2.67
2023-05-04T09:46:15.254Z,1.85
2023-05-04T09:48:51.876Z,3.80
2023-05-04T09:51:22.568Z,2.50
2023-05-04T09:53:51.040Z,3.22
2023-05-04T09:56:41.375Z,6.53
2023-05-04T09:59:10.176Z,5.13
2023-05-04T10:01:37.777Z,8.75
2023-05-04T10:04:06.297Z,3.28
2023-05-04T10:06:34.201Z,3.30
2023-05-04T10:09:02.145Z,5.90
2023-05-04T10:11:30.623Z,2.78
2023-05-04T10:13:57.970Z,3.50
2023-05-04T10:16:38.997Z,4.32
2023-05-04T10:19:24.202Z,8.07
2023-05-04T10:22:12.447Z,4.40
2023-05-04T10:24:55.060Z,2.90
2023-05-04T10:27:51.403Z,2.35
2023-05-04T10:30:19.372Z,3.70
2023-05-04T10:32:46.691Z,1.85
2023-05-04T10:35:16.885Z,4.20
2023-05-04T10:37:57.471Z,7.55
2023-05-04T10:40:39.324Z,5.80
2023-05-04T10:43:08.812Z,3.03
2023-05-04T10:45:44.067Z,4.40
2023-05-04T10:48:11.315Z,3.78
2023-05-04T10:50:43.676Z,4.68
2023-05-04T10:53:12.117Z,1.85
2023-05-04T10:55:41.974Z,1.85
2023-05-04T10:58:11.039Z,3.58
2023-05-04T11:00:43.177Z,4.72
2023-05-04T11:03:12.260Z,2.55
2023-05-04T11:05:51.748Z,3.20
2023-05-04T11:08:20.961Z,5.35
2023-05-04T11:10:59.851Z,3.85
2023-05-04T11:13:27.763Z,2.90
2023-05-04T11:15:54.890Z,1.83
2023-05-04T11:18:31.133Z,3.25
2023-05-04T11:20:58.825Z,2.92
2023-05-04T11:23:26.752Z,15.88
2023-05-04T11:25:54.956Z,2.83
2023-05-04T11:28:35.161Z,4.47
2023-05-04T11:31:15.602Z,4.03
2023-05-04T11:33:54.779Z,2.35
2023-05-04T11:36:23.099Z,2.67
2023-05-04T11:38:51.436Z,3.08
2023-05-04T11:41:18.752Z,3.17
2023-05-04T11:43:47.042Z,2.05
2023-05-04T11:46:16.676Z,5.05
2023-05-04T11:48:44.488Z,2.03
2023-05-04T11:51:11.699Z,3.78
2023-05-04T11:53:39.783Z,2.83
2023-05-04T11:56:10.833Z,3.95
2023-05-04T11:58:38.158Z,1.60
2023-05-04T12:01:06.039Z,3.22
2023-05-04T12:06:05.964Z,4.40
2023-05-04T12:08:35.531Z,3.92
2023-05-04T12:11:26.387Z,4.82
2023-05-04T12:14:17.319Z,3.15
2023-05-04T12:16:55.255Z,3.20
2023-05-04T12:19:23.725Z,3.45
2023-05-04T12:21:53.318Z,2.65
2023-05-04T12:24:25.208Z,2.13
2023-05-04T12:26:52.450Z,3.15
2023-05-04T12:29:19.567Z,3.92
2023-05-04T12:31:46.907Z,4.97
2023-05-04T12:34:14.230Z,3.80
2023-05-04T12:36:41.419Z,2.05
2023-05-04T12:39:08.946Z,2.03
2023-05-04T12:41:36.164Z,3.13
2023-05-04T12:44:03.400Z,2.33
2023-05-04T12:46:30.702Z,4.78
2023-05-04T12:48:58.019Z,2.92
2023-05-04T12:51:25.225Z,2.17
2023-05-04T12:53:52.424Z,3.42
2023-05-04T12:56:19.678Z,4.72
2023-05-04T12:58:46.932Z,2.55
2023-05-04T13:01:14.123Z,3.58
2023-05-04T13:03:41.404Z,2.05
2023-05-04T13:06:09.167Z,2.80
2023-05-04T13:08:36.290Z,6.68
2023-05-04T13:11:03.486Z,4.57
2023-05-04T13:13:31.060Z,2.67
2023-05-04T13:15:58.373Z,3.30
2023-05-04T13:18:27.526Z,5.18
2023-05-04T13:20:56.178Z,2.20
2023-05-04T13:23:23.896Z,1.95
2023-05-04T13:25:51.834Z,4.07
2023-05-04T13:28:19.374Z,2.78
2023-05-04T13:30:46.626Z,2.63
2023-05-04T13:33:27.878Z,1.70
2023-05-04T13:35:58.136Z,4.22
2023-05-04T13:38:25.745Z,5.40
2023-05-04T13:40:52.948Z,4.93
2023-05-04T13:43:21.165Z,2.08
2023-05-04T13:45:48.676Z,4.13
2023-05-04T13:48:15.910Z,6.68
2023-05-04T13:50:43.263Z,6.20
2023-05-04T13:53:13.643Z,1.67
2023-05-04T13:55:41.049Z,4.90
2023-05-04T13:58:08.357Z,1.60
2023-05-04T14:00:35.517Z,2.05
2023-05-04T14:03:02.990Z,3.45
2023-05-04T14:05:30.679Z,2.03
2023-05-04T14:07:57.925Z,1.77
2023-05-04T14:10:25.256Z,3.90
2023-05-04T14:12:52.563Z,1.00
2023-05-04T14:15:22.822Z,2.53
2023-05-04T14:17:50.762Z,3.60
2023-05-04T14:20:18.363Z,4.57
2023-05-04T14:22:45.861Z,8.73
2023-05-04T14:25:13.478Z,5.13
2023-05-04T14:27:42.150Z,4.30
2023-05-04T14:30:10.208Z,4.70
2023-05-04T14:32:37.430Z,3.72
2023-05-04T14:35:08.694Z,5.03
2023-05-04T14:37:38.196Z,4.77
2023-05-04T14:40:11.055Z,4.20
2023-05-04T14:45:07.422Z,7.03
2023-05-04T14:47:35.371Z,3.83
2023-05-04T14:50:02.744Z,9.68
2023-05-04T14:52:32.418Z,6.72
2023-05-04T14:54:59.578Z,4.35
2023-05-04T14:57:26.975Z,5.95
2023-05-04T14:59:54.174Z,2.45
2023-05-04T15:02:21.426Z,2.00
2023-05-04T15:04:48.953Z,6.95
2023-05-04T15:07:18.303Z,2.17
2023-05-04T15:09:45.786Z,3.80
2023-05-04T15:12:13.483Z,3.08
2023-05-04T15:14:40.577Z,9.43
2023-05-04T15:17:07.820Z,5.50
2023-05-04T15:19:39.040Z,3.05
2023-05-04T15:22:06.860Z,5.13
2023-05-04T15:24:34.011Z,5.45
2023-05-04T15:27:02.264Z,4.32
2023-05-04T15:29:29.614Z,6.55
2023-05-04T15:31:56.993Z,7.85
2023-05-04T15:34:24.283Z,5.03
2023-05-04T15:36:52.179Z,4.70
2023-05-04T15:39:19.333Z,6.30
2023-05-04T15:41:46.569Z,5.00
2023-05-04T15:44:13.736Z,8.52
2023-05-04T15:46:41.182Z,6.60
2023-05-04T15:49:08.795Z,7.35
2023-05-04T15:51:36.183Z,6.80
2023-05-04T15:54:03.998Z,9.45
2023-05-04T15:56:31.254Z,6.90
2023-05-04T15:58:59.362Z,6.57
2023-05-04T16:01:26.964Z,4.90
2023-05-04T16:03:59.642Z,6.25
2023-05-04T16:06:27.386Z,7.00
2023-05-04T16:08:55.075Z,4.07
2023-05-04T16:11:22.186Z,3.50
2023-05-04T16:13:49.332Z,7.05
2023-05-04T16:16:16.510Z,5.80
2023-05-04T16:18:43.782Z,8.43
2023-05-04T16:21:12.513Z,4.60
2023-05-04T16:23:40.424Z,5.20
2023-05-04T16:26:07.683Z,5.07
2023-05-04T16:28:35.192Z,5.43
2023-05-04T16:31:05.395Z,7.70
2023-05-04T16:33:32.931Z,5.85
2023-05-04T16:36:00.184Z,8.50
2023-05-04T16:38:27.756Z,8.10
2023-05-04T16:40:57.572Z,6.00
2023-05-04T16:43:24.913Z,10.90
2023-05-04T16:45:53.125Z,6.97
2023-05-04T16:48:20.289Z,7.57
2023-05-04T16:50:47.513Z,6.22
2023-05-04T16:53:14.840Z,6.07
2023-05-04T16:55:42.011Z,5.13
2023-05-04T16:58:09.394Z,9.60
2023-05-04T17:00:36.593Z,9.60
2023-05-04T17:03:04.072Z,6.05
2023-05-04T17:05:31.348Z,7.80
2023-05-04T17:07:58.496Z,6.35
2023-05-04T17:10:25.921Z,6.18
2023-05-04T17:12:54.827Z,5.13
2023-05-04T17:15:22.227Z,6.65
2023-05-04T17:17:49.489Z,5.97
2023-05-04T17:20:16.851Z,5.55
2023-05-04T17:22:44.476Z,6.43
2023-05-04T17:25:12.637Z,5.00
2023-05-04T17:27:40.941Z,8.85
2023-05-04T17:30:09.241Z,7.68
2023-05-04T17:32:37.592Z,7.82
2023-05-04T17:35:16.027Z,9.48
2023-05-04T17:37:51.378Z,5.65
2023-05-04T17:40:18.566Z,6.65
2023-05-04T17:42:47.338Z,6.82
2023-05-04T17:45:14.623Z,8.43
2023-05-04T17:47:43.997Z,11.65
2023-05-04T17:50:11.337Z,8.38
2023-05-04T17:52:38.611Z,9.18
2023-05-04T17:55:06.212Z,7.00
2023-05-04T17:57:34.016Z,8.30
2023-05-04T18:00:01.203Z,9.70
2023-05-04T18:02:31.368Z,12.77
2023-05-04T18:04:58.598Z,14.02
2023-05-04T18:07:25.858Z,10.80
2023-05-04T18:09:52.966Z,15.75
2023-05-04T18:12:20.227Z,12.05
2023-05-04T18:14:47.451Z,11.18
2023-05-04T18:17:14.623Z,9.35
2023-05-04T18:19:41.849Z,9.32
2023-05-04T18:22:09.057Z,10.68
2023-05-04T18:24:36.146Z,12.02
2023-05-04T18:27:03.703Z,11.25
2023-05-04T18:29:32.267Z,11.73
2023-05-04T18:32:01.463Z,11.38
2023-05-04T18:34:28.729Z,7.50
2023-05-04T18:36:55.931Z,6.60
2023-05-04T18:39:23.236Z,8.75
2023-05-04T18:41:50.704Z,8.60
2023-05-04T18:44:18.056Z,8.70
2023-05-04T18:46:46.152Z,10.60
2023-05-04T18:49:13.789Z,9.45
2023-05-04T18:51:41.898Z,17.15
2023-05-04T18:54:09.536Z,11.43
2023-05-04T18:56:36.651Z,15.32
2023-05-04T18:59:06.192Z,12.55
2023-05-04T19:01:33.659Z,15.70
2023-05-04T19:04:01.427Z,10.90
2023-05-04T19:06:28.706Z,9.93
2023-05-04T19:08:55.928Z,18.02
2023-05-04T19:11:23.029Z,13.27
2023-05-04T19:13:50.264Z,16.23
2023-05-04T19:16:17.617Z,12.23
2023-05-04T19:18:45.826Z,14.55
2023-05-04T19:21:12.998Z,15.18
2023-05-04T19:23:40.233Z,15.00
2023-05-04T19:26:07.373Z,17.67
2023-05-04T19:28:34.646Z,17.80
2023-05-04T19:31:01.895Z,23.13
2023-05-04T19:33:40.445Z,19.40
2023-05-04T19:36:12.425Z,19.92
2023-05-04T19:38:39.712Z,19.77
2023-05-04T19:41:06.925Z,13.93
2023-05-04T19:43:34.002Z,17.20
2023-05-04T19:46:02.822Z,18.80
2023-05-04T19:48:29.936Z,26.98
2023-05-04T19:50:57.211Z,22.67
2023-05-04T19:53:24.464Z,25.40
2023-05-04T19:55:51.952Z,19.52
2023-05-04T19:58:19.238Z,27.60
2023-05-04T20:00:46.579Z,17.95
2023-05-04T20:03:13.849Z,15.27
2023-05-04T20:05:41.030Z,22.52
2023-05-04T20:08:08.422Z,17.60
2023-05-04T20:10:35.557Z,24.17
2023-05-04T20:13:03.420Z,17.65
2023-05-04T20:15:30.768Z,17.38
2023-05-04T20:17:58.008Z,19.83
2023-05-04T20:20:25.277Z,20.05
2023-05-04T20:22:52.904Z,22.70
2023-05-04T20:25:20.191Z,20.75
2023-05-04T20:27:49.178Z,19.77
2023-05-04T20:30:16.391Z,20.38
2023-05-04T20:32:44.316Z,22.92
2023-05-04T20:35:11.935Z,21.02
2023-05-04T20:37:39.212Z,24.13
2023-05-04T20:40:08.235Z,25.02
2023-05-04T20:42:36.123Z,18.73
2023-05-04T20:45:03.442Z,18.33
2023-05-04T20:47:34.293Z,17.08
2023-05-04T20:50:01.582Z,18.08
2023-05-04T20:52:32.210Z,14.82
2023-05-04T20:54:59.575Z,16.73
2023-05-04T20:57:27.033Z,9.82
2023-05-04T20:59:54.679Z,11.27
2023-05-04T21:02:22.160Z,14.45
2023-05-04T21:04:49.681Z,9.60
2023-05-04T21:07:16.832Z,8.65
2023-05-04T21:09:44.230Z,8.63
2023-05-04T21:12:11.560Z,7.50
2023-05-04T21:14:38.761Z,6.88
2023-05-04T21:17:07.164Z,9.65
2023-05-04T21:19:34.804Z,8.43
2023-05-04T21:22:01.944Z,9.30
2023-05-04T21:24:30.010Z,8.02
2023-05-04T21:26:57.773Z,12.05
2023-05-04T21:29:25.097Z,6.80
2023-05-04T21:31:52.486Z,55.08
2023-05-04T21:34:19.852Z,96.47
2023-05-04T21:36:47.026Z,66.18
2023-05-04T21:39:14.736Z,29.80
2023-05-04T21:41:41.939Z,32.63
2023-05-04T21:44:09.155Z,70.63
2023-05-04T21:46:36.472Z,66.93
2023-05-04T21:49:04.048Z,77.75
2023-05-04T21:51:31.833Z,73.20
2023-05-04T21:53:59.115Z,67.55
2023-05-04T21:56:26.284Z,46.75
2023-05-04T21:58:53.348Z,43.60
2023-05-04T22:01:20.699Z,46.70
2023-05-04T22:03:47.916Z,44.85
2023-05-04T22:06:15.068Z,44.28
2023-05-04T22:08:42.146Z,243.18
2023-05-04T22:11:09.359Z,154.27
2023-05-04T22:13:36.618Z,159.40
2023-05-04T22:16:03.893Z,107.90
2023-05-04T22:18:31.227Z,27.48
2023-05-04T22:20:58.792Z,15.45
2023-05-04T22:23:26.599Z,15.50
2023-05-04T22:25:53.734Z,20.33
2023-05-04T22:28:20.934Z,27.33
2023-05-04T22:30:48.103Z,17.67
2023-05-04T22:33:15.269Z,9.63
2023-05-04T22:35:42.248Z,5.57
2023-05-04T22:38:09.570Z,4.57
2023-05-04T22:40:40.182Z,3.97
2023-05-04T22:43:07.626Z,8.43
2023-05-04T22:45:39.004Z,3.15
2023-05-04T22:48:06.332Z,4.47
2023-05-04T22:50:33.341Z,3.60
2023-05-04T22:53:01.470Z,4.35
2023-05-04T22:55:28.541Z,4.22
2023-05-04T22:57:55.506Z,3.13
2023-05-04T23:00:23.136Z,3.15
2023-05-04T23:02:50.391Z,3.83
2023-05-04T23:05:17.546Z,4.38
2023-05-04T23:07:44.563Z,2.88
2023-05-04T23:10:11.569Z,4.82
2023-05-04T23:12:38.726Z,3.22
2023-05-04T23:15:07.436Z,4.75
2023-05-04T23:17:38.252Z,4.20
2023-05-04T23:20:13.414Z,3.28
2023-05-04T23:22:40.596Z,2.53
2023-05-04T23:25:08.370Z,5.18
2023-05-04T23:27:35.349Z,4.07
2023-05-04T23:30:02.463Z,4.65
2023-05-04T23:32:30.902Z,2.63
2023-05-04T23:34:58.012Z,3.03
2023-05-04T23:37:25.050Z,4.70
2023-05-04T23:39:52.176Z,3.53
2023-05-04T23:42:19.444Z,3.70
2023-05-04T23:44:46.402Z,5.22
2023-05-04T23:47:13.421Z,3.55
2023-05-04T23:49:40.389Z,5.32
2023-05-04T23:52:07.431Z,3.83
2023-05-04T23:54:34.440Z,5.18
2023-05-04T23:57:01.487Z,5.55
2023-05-04T23:59:28.576Z,5.47
